createdAt,value
2022-11-18T00:01:11.400Z,49.87
2022-11-18T00:03:38.816Z,50.17
2022-11-18T00:06:06.516Z,51.00
2022-11-18T00:08:34.068Z,50.93
2022-11-18T00:11:06.289Z,50.84
2022-11-18T00:13:51.086Z,50.11
2022-11-18T00:16:17.668Z,50.77
2022-11-18T00:18:44.211Z,50.83
2022-11-18T00:21:12.142Z,50.83
2022-11-18T00:23:39.681Z,50.92
2022-11-18T00:26:11.124Z,50.47
2022-11-18T00:28:37.871Z,50.28
2022-11-18T00:31:06.514Z,50.85
2022-11-18T00:33:32.968Z,50.67
2022-11-18T00:35:59.782Z,50.52
2022-11-18T00:38:26.823Z,50.76
2022-11-18T00:41:06.093Z,51.40
2022-11-18T00:43:33.291Z,50.57
2022-11-18T00:45:59.785Z,50.85
2022-11-18T00:48:26.326Z,50.89
2022-11-18T00:51:06.610Z,51.39
2022-11-18T00:53:32.971Z,51.15
2022-11-18T00:55:59.441Z,51.66
2022-11-18T00:58:26.088Z,51.29
2022-11-18T01:00:53.167Z,51.32
2022-11-18T01:03:20.483Z,51.44
2022-11-18T01:05:47.646Z,51.24
2022-11-18T01:08:14.793Z,51.14
2022-11-18T01:10:41.653Z,51.17
2022-11-18T01:13:19.444Z,51.90
2022-11-18T01:15:57.447Z,51.79
2022-11-18T01:18:30.492Z,51.74
2022-11-18T01:21:01.474Z,51.16
2022-11-18T01:23:27.890Z,51.08
2022-11-18T01:25:54.299Z,50.85
2022-11-18T01:28:23.955Z,51.57
2022-11-18T01:30:51.116Z,51.26
2022-11-18T01:33:17.540Z,51.49
2022-11-18T01:35:44.284Z,51.49
2022-11-18T01:38:12.159Z,51.58
2022-11-18T01:40:40.325Z,51.47
2022-11-18T01:43:13.841Z,51.63
2022-11-18T01:45:42.147Z,50.64
2022-11-18T01:48:23.087Z,51.60
2022-11-18T01:50:54.244Z,51.05
2022-11-18T01:53:25.537Z,51.33
2022-11-18T01:55:55.998Z,50.91
2022-11-18T01:58:27.360Z,51.54
2022-11-18T02:00:54.546Z,51.18
2022-11-18T02:03:22.080Z,51.61
2022-11-18T02:05:50.388Z,50.61
2022-11-18T02:08:18.936Z,51.42
2022-11-18T02:10:45.320Z,50.98
2022-11-18T02:13:13.166Z,50.96
2022-11-18T02:15:55.604Z,51.58
2022-11-18T02:18:40.959Z,51.65
2022-11-18T02:21:25.503Z,52.40
2022-11-18T02:24:09.653Z,51.48
2022-11-18T02:26:54.386Z,51.79
2022-11-18T02:29:32.181Z,51.60
2022-11-18T02:32:01.824Z,51.48
2022-11-18T02:34:28.123Z,51.87
2022-11-18T02:37:02.559Z,52.14
2022-11-18T02:39:39.347Z,52.26
2022-11-18T02:42:11.261Z,51.99
2022-11-18T02:44:40.775Z,52.67
2022-11-18T02:47:11.374Z,52.41
2022-11-18T02:49:53.873Z,52.26
2022-11-18T02:52:22.184Z,52.00
2022-11-18T02:54:51.121Z,52.20
2022-11-18T02:57:19.941Z,52.30
2022-11-18T02:59:46.303Z,51.68
2022-11-18T03:02:17.315Z,52.30
2022-11-18T03:04:46.422Z,51.70
2022-11-18T03:07:29.540Z,52.34
2022-11-18T03:09:57.865Z,52.12
2022-11-18T03:12:43.715Z,51.88
2022-11-18T03:15:26.007Z,52.25
2022-11-18T03:18:20.030Z,52.10
2022-11-18T03:21:01.223Z,52.48
2022-11-18T03:23:43.099Z,52.14
2022-11-18T03:26:14.110Z,52.47
2022-11-18T03:28:43.896Z,51.87
2022-11-18T03:31:21.875Z,52.34
2022-11-18T03:34:00.095Z,52.17
2022-11-18T03:36:32.633Z,52.29
2022-11-18T03:39:01.334Z,52.40
2022-11-18T03:41:31.914Z,52.15
2022-11-18T03:44:24.923Z,52.55
2022-11-18T03:47:02.958Z,52.72
2022-11-18T03:49:40.564Z,52.21
2022-11-18T03:52:21.344Z,52.72
2022-11-18T03:54:51.782Z,52.52
2022-11-18T03:57:33.468Z,52.71
2022-11-18T04:00:05.727Z,52.49
2022-11-18T04:02:32.337Z,52.49
2022-11-18T04:05:00.602Z,52.38
2022-11-18T04:07:35.648Z,52.63
2022-11-18T04:10:11.782Z,52.70
2022-11-18T04:12:43.666Z,52.57
2022-11-18T04:15:10.027Z,52.28
2022-11-18T04:17:36.837Z,52.57
2022-11-18T04:20:03.639Z,52.40
2022-11-18T04:22:30.131Z,52.30
2022-11-18T04:24:56.437Z,52.29
2022-11-18T04:27:22.735Z,52.32
2022-11-18T04:29:49.238Z,52.48
2022-11-18T04:32:15.730Z,52.45
2022-11-18T04:34:42.035Z,52.46
2022-11-18T04:37:08.531Z,52.30
2022-11-18T04:39:34.833Z,52.01
2022-11-18T04:42:01.374Z,52.07
2022-11-18T04:44:33.082Z,52.43
2022-11-18T04:47:01.618Z,52.10
2022-11-18T04:49:28.482Z,52.79
2022-11-18T04:51:56.059Z,51.87
2022-11-18T04:54:22.918Z,51.74
2022-11-18T04:56:50.140Z,51.91
2022-11-18T04:59:22.645Z,52.46
2022-11-18T05:01:49.975Z,52.23
2022-11-18T05:04:25.073Z,52.78
2022-11-18T05:06:52.307Z,52.17
2022-11-18T05:09:19.845Z,52.16
2022-11-18T05:12:05.060Z,52.33
2022-11-18T05:14:31.788Z,52.25
2022-11-18T05:17:00.005Z,52.78
2022-11-18T05:19:26.675Z,52.28
2022-11-18T05:21:53.774Z,52.34
2022-11-18T05:24:20.477Z,52.31
2022-11-18T05:26:46.807Z,52.41
2022-11-18T05:29:13.173Z,52.21
2022-11-18T05:31:39.661Z,52.44
2022-11-18T05:34:06.092Z,52.70
2022-11-18T05:36:32.463Z,52.37
2022-11-18T05:38:59.926Z,52.50
2022-11-18T05:41:45.075Z,52.49
2022-11-18T05:44:11.390Z,52.82
2022-11-18T05:46:37.951Z,52.53
2022-11-18T05:49:04.362Z,52.98
2022-11-18T05:51:30.733Z,52.83
2022-11-18T05:53:57.461Z,52.97
2022-11-18T05:56:37.092Z,53.30
2022-11-18T05:59:03.976Z,53.07
2022-11-18T06:01:43.955Z,53.26
2022-11-18T06:04:20.094Z,52.99
2022-11-18T06:06:49.189Z,53.30
2022-11-18T06:09:20.778Z,52.68
2022-11-18T06:11:53.063Z,52.73
2022-11-18T06:14:33.675Z,53.22
2022-11-18T06:17:06.220Z,53.05
2022-11-18T06:19:33.174Z,52.86
2022-11-18T06:22:00.061Z,52.54
2022-11-18T06:24:26.838Z,52.62
2022-11-18T06:26:53.781Z,52.63
2022-11-18T06:29:26.177Z,52.61
2022-11-18T06:31:53.946Z,52.49
2022-11-18T06:34:20.237Z,52.74
2022-11-18T06:36:46.566Z,52.82
2022-11-18T06:39:12.921Z,52.65
2022-11-18T06:41:39.225Z,52.75
2022-11-18T06:44:05.578Z,52.71
2022-11-18T06:46:51.768Z,52.78
2022-11-18T06:49:18.317Z,52.71
2022-11-18T06:51:44.829Z,52.61
2022-11-18T06:54:11.421Z,52.79
2022-11-18T06:56:38.021Z,52.72
2022-11-18T06:59:04.932Z,52.75
2022-11-18T07:01:34.912Z,52.72
2022-11-18T07:04:01.909Z,52.49
2022-11-18T07:06:30.953Z,52.58
2022-11-18T07:08:59.484Z,52.57
2022-11-18T07:11:26.299Z,53.16
2022-11-18T07:13:53.075Z,52.17
2022-11-18T07:16:24.894Z,52.88
2022-11-18T07:18:52.618Z,52.51
2022-11-18T07:21:23.345Z,52.92
2022-11-18T07:23:49.661Z,52.58
2022-11-18T07:26:16.553Z,52.73
2022-11-18T07:28:43.189Z,52.75
2022-11-18T07:31:12.499Z,52.91
2022-11-18T07:33:40.655Z,53.13
2022-11-18T07:36:21.429Z,53.40
2022-11-18T07:38:48.079Z,52.92
2022-11-18T07:41:23.554Z,53.40
2022-11-18T07:43:54.958Z,53.01
2022-11-18T07:46:27.702Z,53.02
2022-11-18T07:48:56.069Z,52.96
2022-11-18T07:51:28.071Z,52.99
2022-11-18T07:53:54.613Z,52.91
2022-11-18T07:56:21.280Z,52.90
2022-11-18T07:58:48.086Z,52.98
2022-11-18T08:01:20.609Z,53.18
2022-11-18T08:03:47.657Z,53.04
2022-11-18T08:06:16.564Z,53.02
2022-11-18T08:08:43.335Z,52.87
2022-11-18T08:11:16.296Z,53.08
2022-11-18T08:13:47.357Z,52.84
2022-11-18T08:16:16.638Z,52.80
2022-11-18T08:18:43.015Z,52.83
2022-11-18T08:21:10.263Z,52.99
2022-11-18T08:23:41.673Z,52.76
2022-11-18T08:26:11.871Z,52.95
2022-11-18T08:28:38.568Z,52.87
2022-11-18T08:31:16.086Z,53.21
2022-11-18T08:33:42.714Z,52.57
2022-11-18T08:36:25.269Z,52.87
2022-11-18T08:38:51.678Z,52.66
2022-11-18T08:41:38.727Z,53.32
2022-11-18T08:44:07.048Z,52.70
2022-11-18T08:46:33.850Z,52.76
2022-11-18T08:49:00.224Z,52.48
2022-11-18T08:51:28.455Z,52.76
2022-11-18T08:53:55.174Z,52.81
2022-11-18T08:56:23.528Z,52.57
2022-11-18T08:58:50.373Z,52.90
2022-11-18T09:01:17.043Z,52.58
2022-11-18T09:03:43.925Z,52.85
2022-11-18T09:06:19.041Z,52.81
2022-11-18T09:08:46.104Z,52.89
2022-11-18T09:11:23.950Z,52.96
2022-11-18T09:16:46.807Z,52.64
2022-11-18T09:22:02.054Z,52.42
2022-11-18T09:24:28.664Z,52.52
2022-11-18T09:26:55.260Z,52.91
2022-11-18T09:29:26.250Z,52.58
2022-11-18T09:31:53.788Z,52.49
2022-11-18T09:34:20.721Z,52.59
2022-11-18T09:36:47.086Z,52.56
2022-11-18T09:39:13.647Z,52.63
2022-11-18T09:41:53.084Z,53.08
2022-11-18T09:44:48.628Z,52.66
2022-11-18T09:47:27.840Z,52.86
2022-11-18T09:49:57.030Z,52.45
2022-11-18T09:52:36.169Z,52.30
2022-11-18T09:55:11.892Z,52.44
2022-11-18T09:57:43.575Z,52.19
2022-11-18T10:00:22.390Z,52.81
2022-11-18T10:02:57.598Z,52.86
2022-11-18T10:05:27.698Z,52.23
2022-11-18T10:08:09.637Z,52.24
2022-11-18T10:10:48.484Z,52.78
2022-11-18T10:13:26.556Z,52.47
2022-11-18T10:16:05.051Z,52.29
2022-11-18T10:18:59.858Z,52.41
2022-11-18T10:21:55.333Z,52.51
2022-11-18T10:24:25.159Z,52.44
2022-11-18T10:26:57.041Z,52.43
2022-11-18T10:29:24.110Z,51.98
2022-11-18T10:32:11.850Z,52.46
2022-11-18T10:34:51.607Z,51.83
2022-11-18T10:38:06.210Z,51.53
2022-11-18T10:40:26.238Z,51.49
2022-11-18T10:42:52.625Z,51.84
2022-11-18T10:45:32.496Z,51.49
2022-11-18T10:48:27.958Z,51.41
2022-11-18T10:50:56.059Z,51.17
2022-11-18T10:53:33.327Z,50.98
2022-11-18T10:56:15.964Z,50.83
2022-11-18T10:58:46.464Z,50.91
2022-11-18T11:01:16.019Z,50.66
2022-11-18T11:03:44.172Z,50.66
2022-11-18T11:06:26.802Z,50.17
2022-11-18T11:08:56.329Z,50.47
2022-11-18T11:11:30.526Z,50.68
2022-11-18T11:14:15.708Z,51.42
2022-11-18T11:16:51.738Z,51.50
2022-11-18T11:19:22.907Z,51.36
2022-11-18T11:21:49.226Z,51.50
2022-11-18T11:24:15.944Z,51.02
2022-11-18T11:30:06.923Z,50.45
2022-11-18T11:32:39.105Z,50.41
2022-11-18T11:35:30.977Z,50.70
2022-11-18T11:38:31.252Z,50.01
2022-11-18T11:41:22.195Z,49.65
2022-11-18T11:44:07.228Z,49.34
2022-11-18T11:47:10.168Z,48.99
2022-11-18T11:49:45.791Z,49.05
2022-11-18T11:52:21.167Z,48.95
2022-11-18T11:55:04.602Z,49.12
2022-11-18T11:57:51.325Z,49.17
2022-11-18T12:00:19.907Z,49.33
2022-11-18T12:02:57.553Z,49.55
2022-11-18T12:05:36.510Z,49.67
2022-11-18T12:08:24.285Z,49.14
2022-11-18T12:10:59.810Z,48.73
2022-11-18T12:13:48.326Z,49.06
2022-11-18T12:16:33.773Z,49.05
2022-11-18T12:19:07.686Z,49.30
2022-11-18T12:21:46.146Z,49.55
2022-11-18T12:24:31.538Z,49.79
2022-11-18T12:27:06.734Z,49.90
2022-11-18T12:29:36.281Z,49.66
2022-11-18T12:32:04.112Z,49.92
2022-11-18T12:34:42.543Z,50.18
2022-11-18T12:37:24.239Z,49.92
2022-11-18T12:39:57.293Z,50.10
2022-11-18T12:43:01.944Z,50.10
2022-11-18T12:45:51.953Z,49.89
2022-11-18T12:48:27.846Z,49.97
2022-11-18T12:51:18.705Z,49.46
2022-11-18T12:53:47.594Z,49.32
2022-11-18T12:56:26.373Z,49.72
2022-11-18T12:59:02.308Z,49.52
2022-11-18T13:01:35.388Z,49.52
2022-11-18T13:04:17.496Z,49.78
2022-11-18T13:06:44.814Z,49.64
2022-11-18T13:09:18.933Z,49.73
2022-11-18T13:11:59.088Z,49.62
2022-11-18T13:14:54.948Z,49.54
2022-11-18T13:17:54.366Z,48.89
2022-11-18T13:20:23.506Z,48.84
2022-11-18T13:23:20.228Z,49.00
2022-11-18T13:25:48.829Z,49.23
2022-11-18T13:28:24.977Z,48.83
2022-11-18T13:31:00.060Z,48.85
2022-11-18T13:33:26.512Z,49.41
2022-11-18T13:35:52.963Z,49.23
2022-11-18T13:38:27.669Z,49.49
2022-11-18T13:41:13.884Z,49.41
2022-11-18T13:43:42.360Z,49.63
2022-11-18T13:46:17.590Z,49.25
2022-11-18T13:48:52.078Z,48.90
2022-11-18T13:51:18.636Z,49.46
2022-11-18T13:53:45.441Z,49.51
2022-11-18T13:56:30.288Z,49.34
2022-11-18T13:59:17.427Z,49.47
2022-11-18T14:01:46.231Z,49.25
2022-11-18T14:04:32.061Z,49.54
2022-11-18T14:07:27.840Z,49.44
2022-11-18T14:10:01.988Z,49.32
2022-11-18T14:12:35.954Z,49.30
2022-11-18T14:15:20.909Z,49.29
2022-11-18T14:17:56.200Z,49.21
2022-11-18T14:20:24.745Z,49.91
2022-11-18T14:22:53.237Z,49.84
2022-11-18T14:25:26.196Z,49.71
2022-11-18T14:27:55.928Z,49.58
2022-11-18T14:30:37.826Z,50.15
2022-11-18T14:33:24.202Z,50.21
2022-11-18T14:35:55.572Z,50.25
2022-11-18T14:41:47.140Z,50.16
2022-11-18T14:44:13.905Z,50.48
2022-11-18T14:46:43.473Z,50.33
2022-11-18T14:49:20.008Z,50.69
2022-11-18T14:51:46.827Z,50.08
2022-11-18T14:54:25.221Z,50.57
2022-11-18T14:56:58.289Z,50.40
2022-11-18T14:59:24.759Z,50.35
2022-11-18T15:01:51.528Z,50.33
2022-11-18T15:04:19.165Z,50.45
2022-11-18T15:06:46.808Z,50.72
2022-11-18T15:09:13.569Z,50.57
2022-11-18T15:11:40.224Z,50.67
2022-11-18T15:14:06.687Z,50.96
2022-11-18T15:16:34.407Z,50.99
2022-11-18T15:19:03.377Z,50.76
2022-11-18T15:21:29.974Z,51.12
2022-11-18T15:23:56.417Z,50.93
2022-11-18T15:26:25.797Z,51.09
2022-11-18T15:28:54.590Z,51.57
2022-11-18T15:31:22.732Z,51.23
2022-11-18T15:33:51.180Z,51.36
2022-11-18T15:36:20.131Z,51.39
2022-11-18T15:38:47.492Z,51.21
2022-11-18T15:41:25.336Z,51.36
2022-11-18T15:43:53.619Z,50.94
2022-11-18T15:46:22.052Z,51.25
2022-11-18T15:48:52.043Z,51.54
2022-11-18T15:51:19.104Z,51.37
2022-11-18T15:53:46.998Z,51.15
2022-11-18T15:56:20.518Z,51.37
2022-11-18T15:59:01.978Z,51.88
2022-11-18T16:01:35.190Z,51.47
2022-11-18T16:04:02.482Z,51.50
2022-11-18T16:06:28.983Z,51.53
2022-11-18T16:08:59.540Z,51.59
2022-11-18T16:11:45.858Z,51.45
2022-11-18T16:14:13.862Z,52.00
2022-11-18T16:16:42.313Z,51.95
2022-11-18T16:19:14.626Z,52.29
2022-11-18T16:21:46.834Z,51.99
2022-11-18T16:24:17.064Z,51.65
2022-11-18T16:26:46.708Z,51.77
2022-11-18T16:29:16.404Z,52.14
2022-11-18T16:31:50.906Z,51.94
2022-11-18T16:34:23.214Z,51.83
2022-11-18T16:36:52.721Z,51.76
2022-11-18T16:39:27.684Z,52.22
2022-11-18T16:42:02.260Z,52.01
2022-11-18T16:44:33.841Z,51.67
2022-11-18T16:47:06.519Z,51.86
2022-11-18T16:49:37.112Z,51.30
2022-11-18T16:52:03.706Z,51.60
2022-11-18T16:54:31.905Z,51.78
2022-11-18T16:56:59.222Z,51.23
2022-11-18T16:59:29.061Z,51.39
2022-11-18T17:01:57.609Z,51.34
2022-11-18T17:04:25.472Z,51.38
2022-11-18T17:06:53.546Z,51.05
2022-11-18T17:09:23.076Z,50.99
2022-11-18T17:11:53.274Z,51.40
2022-11-18T17:14:20.292Z,51.28
2022-11-18T17:16:46.979Z,51.27
2022-11-18T17:19:15.967Z,50.97
2022-11-18T17:21:43.907Z,51.00
2022-11-18T17:24:13.030Z,51.20
2022-11-18T17:26:39.439Z,51.71
2022-11-18T17:29:06.233Z,51.55
2022-11-18T17:31:33.456Z,51.71
2022-11-18T17:34:04.205Z,52.05
2022-11-18T17:36:30.722Z,51.07
2022-11-18T17:38:59.419Z,51.57
2022-11-18T17:41:46.762Z,51.29
2022-11-18T17:44:15.969Z,50.47
2022-11-18T17:46:43.334Z,50.89
2022-11-18T17:49:16.423Z,50.88
2022-11-18T17:51:42.878Z,50.95
2022-11-18T17:54:09.842Z,50.91
2022-11-18T17:56:36.459Z,51.28
2022-11-18T17:59:03.025Z,51.07
2022-11-18T18:01:29.727Z,51.55
2022-11-18T18:03:56.229Z,51.78
2022-11-18T18:06:25.587Z,51.71
2022-11-18T18:08:56.403Z,51.95
2022-11-18T18:11:23.423Z,51.60
2022-11-18T18:14:08.478Z,52.18
2022-11-18T18:16:35.047Z,51.94
2022-11-18T18:19:03.215Z,52.15
2022-11-18T18:21:29.788Z,51.37
2022-11-18T18:23:56.470Z,52.32
2022-11-18T18:26:29.733Z,52.46
2022-11-18T18:28:58.725Z,52.28
2022-11-18T18:31:25.371Z,52.00
2022-11-18T18:33:51.708Z,52.28
2022-11-18T18:36:18.686Z,52.59
2022-11-18T18:38:46.245Z,53.05
2022-11-18T18:41:16.743Z,53.48
2022-11-18T18:43:43.530Z,52.73
2022-11-18T18:46:34.100Z,52.81
2022-11-18T18:49:08.872Z,53.25
2022-11-18T18:51:37.507Z,53.11
2022-11-18T18:54:04.264Z,53.82
2022-11-18T18:56:31.442Z,52.35
2022-11-18T18:58:58.127Z,52.54
2022-11-18T19:01:25.653Z,52.64
2022-11-18T19:03:57.524Z,53.72
2022-11-18T19:09:17.337Z,53.19
2022-11-18T19:12:03.236Z,53.35
2022-11-18T19:14:29.678Z,52.97
2022-11-18T19:17:02.266Z,52.99
2022-11-18T19:19:50.319Z,53.29
2022-11-18T19:22:19.363Z,53.50
2022-11-18T19:24:50.606Z,53.34
2022-11-18T19:27:19.570Z,53.72
2022-11-18T19:29:46.132Z,53.98
2022-11-18T19:32:12.659Z,53.28
2022-11-18T19:34:39.271Z,53.05
2022-11-18T19:37:05.588Z,53.19
2022-11-18T19:39:33.396Z,53.27
2022-11-18T19:41:59.931Z,53.23
2022-11-18T19:44:26.653Z,52.99
2022-11-18T19:46:53.078Z,52.81
2022-11-18T19:49:19.860Z,52.90
2022-11-18T19:51:46.404Z,52.20
2022-11-18T19:54:12.916Z,52.55
2022-11-18T19:56:39.243Z,52.84
2022-11-18T19:59:08.428Z,53.00
2022-11-18T20:01:36.557Z,53.00
2022-11-18T20:04:03.098Z,52.74
2022-11-18T20:06:30.015Z,53.04
2022-11-18T20:08:57.604Z,53.04
2022-11-18T20:11:24.608Z,53.09
2022-11-18T20:13:51.422Z,52.68
2022-11-18T20:16:20.782Z,52.87
2022-11-18T20:18:48.788Z,52.88
2022-11-18T20:21:19.882Z,52.96
2022-11-18T20:23:47.909Z,53.01
2022-11-18T20:26:16.905Z,53.02
2022-11-18T20:28:44.516Z,53.14
2022-11-18T20:31:15.588Z,52.99
2022-11-18T20:33:47.152Z,52.75
2022-11-18T20:36:15.506Z,52.76
2022-11-18T20:38:42.383Z,52.96
2022-11-18T20:41:11.367Z,52.71
2022-11-18T20:43:40.508Z,52.83
2022-11-18T20:46:08.358Z,52.51
2022-11-18T20:48:35.590Z,52.93
2022-11-18T20:51:16.630Z,52.60
2022-11-18T20:53:43.888Z,52.58
2022-11-18T20:56:13.382Z,52.76
2022-11-18T20:58:40.288Z,52.76
2022-11-18T21:01:14.590Z,52.53
2022-11-18T21:03:43.557Z,52.32
2022-11-18T21:06:14.629Z,52.72
2022-11-18T21:08:43.699Z,52.77
2022-11-18T21:11:12.485Z,52.60
2022-11-18T21:13:58.571Z,52.78
2022-11-18T21:16:26.105Z,52.38
2022-11-18T21:18:52.552Z,52.51
2022-11-18T21:21:37.582Z,52.51
2022-11-18T21:24:04.661Z,52.79
2022-11-18T21:26:33.122Z,52.38
2022-11-18T21:29:01.151Z,52.39
2022-11-18T21:31:28.998Z,52.21
2022-11-18T21:33:57.453Z,51.82
2022-11-18T21:36:25.931Z,51.64
2022-11-18T21:38:52.863Z,52.03
2022-11-18T21:41:19.737Z,52.07
2022-11-18T21:46:34.758Z,52.00
2022-11-18T21:49:02.050Z,51.84
2022-11-18T21:51:28.691Z,52.42
2022-11-18T21:53:55.217Z,51.87
2022-11-18T21:56:25.125Z,51.56
2022-11-18T21:58:52.566Z,51.89
2022-11-18T22:01:21.868Z,51.62
2022-11-18T22:03:55.524Z,51.22
2022-11-18T22:06:24.454Z,51.87
2022-11-18T22:08:52.143Z,51.94
2022-11-18T22:11:20.348Z,52.26
2022-11-18T22:13:47.167Z,51.77
2022-11-18T22:16:18.163Z,51.82
2022-11-18T22:18:53.058Z,51.73
2022-11-18T22:21:23.226Z,51.61
2022-11-18T22:23:49.774Z,51.77
2022-11-18T22:26:19.319Z,51.17
2022-11-18T22:28:46.352Z,52.04
2022-11-18T22:31:15.331Z,51.54
2022-11-18T22:33:42.915Z,51.82
2022-11-18T22:36:13.554Z,51.46
2022-11-18T22:38:41.812Z,51.43
2022-11-18T22:41:30.996Z,51.24
2022-11-18T22:44:00.384Z,51.21
2022-11-18T22:46:30.984Z,51.88
2022-11-18T22:48:58.240Z,51.73
2022-11-18T22:51:25.768Z,51.41
2022-11-18T22:54:09.720Z,51.34
2022-11-18T22:56:40.411Z,51.15
2022-11-18T22:59:06.789Z,51.89
2022-11-18T23:01:33.176Z,51.46
2022-11-18T23:03:59.837Z,51.21
2022-11-18T23:06:26.225Z,51.75
2022-11-18T23:08:52.755Z,51.87
2022-11-18T23:11:38.331Z,51.12
2022-11-18T23:14:07.407Z,51.09
2022-11-18T23:16:36.704Z,51.45
2022-11-18T23:19:05.686Z,50.76
2022-11-18T23:21:32.070Z,51.09
2022-11-18T23:23:58.493Z,51.17
2022-11-18T23:26:25.798Z,51.33
2022-11-18T23:28:53.030Z,51.12
2022-11-18T23:31:21.154Z,51.20
2022-11-18T23:33:47.991Z,50.67
2022-11-18T23:36:16.926Z,50.77
2022-11-18T23:38:43.594Z,51.00
2022-11-18T23:41:12.680Z,51.19
2022-11-18T23:43:39.990Z,50.69
2022-11-18T23:46:07.823Z,51.31
2022-11-18T23:48:36.497Z,50.44
2022-11-18T23:51:12.316Z,50.26
2022-11-18T23:53:39.662Z,50.98
2022-11-18T23:56:12.060Z,50.80
2022-11-18T23:58:42.132Z,51.24
